Portada
METAR-TAF:

METAR-TAF

Aeroports :

Lenkoran, Azerbaidjan

latitud: 38-44-47N, longitud: 048-49-04E, altitud: 9 m

Observació

L'informe es va fer fa 23 minuts, a les 12:00 UTC
Vent 3 kt amb direcció variable
Temperatura 5°C
Humitat 100%
Pressió 1032 hPa
Visibilitat: 5000 m
Cel cobert a una alçada de 900 ft
pluja

METAR: UBBL 071200Z VRB03KT 5000 -RA OVC009 05/05 Q1032 R33/CLRD// NOSIG RMK MT OBSC

Hora: 16:23 (12:23 UTC)

Pronòstic

L'informe es va fer fa 1 hora i 11 minuts, a les 11:12 UTC
Pronòstic vàlid del 07 a les 12 UTC al 08 a les 12 UTC
Vent 8 kt del Sud-Est
Visibilitat: 6000 m
Cel ennuvolat a una alçada de 700 ft
Cel cobert a una alçada de 2000 ft
pluja
Temporalment
l' 07 a les 12 UTC al 08 a les 06 UTC
Vent 4 kt amb direcció variable
Visibilitat: 2000 m
Cel cobert a una alçada de 500 ft
plugim, boirina

TAF: UBBL 071112Z 0712/0812 13008KT 6000 -RA BKN007 OVC020 TX06/0712Z TN03/0802Z TEMPO 0712/0806 VRB04KT 2000 DZ BR OVC005

Observacions i pronòstics meteorològics de més de 4000 aeroports (METAR i TAF).

Les estacions disponibles són els punts grocs i vermells al mapa.

Posi el ratolí al punt desitjat per veure el nom de l'estació.

Feu clic per veure les observacions i els pronòstics meteorològics.

Per canviar el mapa: feu clic els botons verds amb una creu de color negre per apropar; al botó verd amb un guió per allunyar la imatge; o en les fletxes verdes per a mapes adjacents.


METAR-TAF: